sensor_id;sensor_type;location;lat;lon;timestamp;temperature;humidity
53274;DHT22;39163;52.696;6.758;2023-03-11T00:00:17;-0.10;99.90
53274;DHT22;39163;52.696;6.758;2023-03-11T00:02:49;-0.20;99.90
53274;DHT22;39163;52.696;6.758;2023-03-11T00:05:32;-0.20;99.90
53274;DHT22;39163;52.696;6.758;2023-03-11T00:07:58;-0.20;99.90
53274;DHT22;39163;52.696;6.758;2023-03-11T00:10:33;-0.30;99.90
53274;DHT22;39163;52.696;6.758;2023-03-11T00:12:59;-0.20;99.90
53274;DHT22;39163;52.696;6.758;2023-03-11T00:15:25;-0.20;99.90
53274;DHT22;39163;52.696;6.758;2023-03-11T00:17:51;-0.10;99.90
53274;DHT22;39163;52.696;6.758;2023-03-11T00:20:36;-0.10;99.90
53274;DHT22;39163;52.696;6.758;2023-03-11T00:23:02;0.00;99.90
53274;DHT22;39163;52.696;6.758;2023-03-11T00:25:29;0.10;99.90
53274;DHT22;39163;52.696;6.758;2023-03-11T00:27:55;0.10;99.90
53274;DHT22;39163;52.696;6.758;2023-03-11T00:30:36;0.10;99.90
53274;DHT22;39163;52.696;6.758;2023-03-11T00:33:02;0.10;99.90
53274;DHT22;39163;52.696;6.758;2023-03-11T00:35:34;0.20;99.90
53274;DHT22;39163;52.696;6.758;2023-03-11T00:38:04;0.20;99.90
53274;DHT22;39163;52.696;6.758;2023-03-11T00:40:33;0.20;99.90
53274;DHT22;39163;52.696;6.758;2023-03-11T00:42:59;0.20;99.90
53274;DHT22;39163;52.696;6.758;2023-03-11T00:45:24;0.30;99.90
53274;DHT22;39163;52.696;6.758;2023-03-11T00:47:51;0.20;99.90
53274;DHT22;39163;52.696;6.758;2023-03-11T00:50:19;0.30;99.90
53274;DHT22;39163;52.696;6.758;2023-03-11T00:52:46;0.30;99.90
53274;DHT22;39163;52.696;6.758;2023-03-11T00:55:13;0.30;99.90
53274;DHT22;39163;52.696;6.758;2023-03-11T00:57:39;0.30;99.90
53274;DHT22;39163;52.696;6.758;2023-03-11T01:00:05;0.40;99.90
53274;DHT22;39163;52.696;6.758;2023-03-11T01:02:34;0.30;99.90
53274;DHT22;39163;52.696;6.758;2023-03-11T01:05:00;0.30;99.90
53274;DHT22;39163;52.696;6.758;2023-03-11T01:07:25;0.20;99.90
53274;DHT22;39163;52.696;6.758;2023-03-11T01:09:51;0.30;99.90
53274;DHT22;39163;52.696;6.758;2023-03-11T01:12:17;0.20;99.90
53274;DHT22;39163;52.696;6.758;2023-03-11T01:14:42;0.10;99.90
53274;DHT22;39163;52.696;6.758;2023-03-11T01:17:08;0.10;99.90
53274;DHT22;39163;52.696;6.758;2023-03-11T01:19:34;0.10;99.90
53274;DHT22;39163;52.696;6.758;2023-03-11T01:21:59;0.10;99.90
53274;DHT22;39163;52.696;6.758;2023-03-11T01:24:25;0.00;99.90
53274;DHT22;39163;52.696;6.758;2023-03-11T01:26:51;0.00;99.90
53274;DHT22;39163;52.696;6.758;2023-03-11T01:29:17;0.00;99.90
53274;DHT22;39163;52.696;6.758;2023-03-11T01:31:42;0.00;99.90
53274;DHT22;39163;52.696;6.758;2023-03-11T01:34:08;-0.10;99.90
53274;DHT22;39163;52.696;6.758;2023-03-11T01:36:33;0.00;99.90
53274;DHT22;39163;52.696;6.758;2023-03-11T01:38:59;0.00;99.90
53274;DHT22;39163;52.696;6.758;2023-03-11T01:41:24;0.10;99.90
53274;DHT22;39163;52.696;6.758;2023-03-11T01:43:51;0.10;99.90
53274;DHT22;39163;52.696;6.758;2023-03-11T01:46:22;0.00;99.90
53274;DHT22;39163;52.696;6.758;2023-03-11T01:48:49;0.00;99.90
53274;DHT22;39163;52.696;6.758;2023-03-11T01:51:16;0.00;99.90
53274;DHT22;39163;52.696;6.758;2023-03-11T01:53:43;0.00;99.90
53274;DHT22;39163;52.696;6.758;2023-03-11T01:56:09;0.00;99.90
53274;DHT22;39163;52.696;6.758;2023-03-11T01:58:36;0.10;99.90
53274;DHT22;39163;52.696;6.758;2023-03-11T02:01:03;0.00;99.90
53274;DHT22;39163;52.696;6.758;2023-03-11T02:03:31;0.00;99.90
53274;DHT22;39163;52.696;6.758;2023-03-11T02:05:58;0.00;99.90
53274;DHT22;39163;52.696;6.758;2023-03-11T02:08:25;0.00;99.90
53274;DHT22;39163;52.696;6.758;2023-03-11T02:10:51;0.00;99.90
53274;DHT22;39163;52.696;6.758;2023-03-11T02:13:17;0.10;99.90
53274;DHT22;39163;52.696;6.758;2023-03-11T02:15:43;0.00;99.90
53274;DHT22;39163;52.696;6.758;2023-03-11T02:18:09;-0.10;99.90
53274;DHT22;39163;52.696;6.758;2023-03-11T02:23:14;0.00;99.90
53274;DHT22;39163;52.696;6.758;2023-03-11T02:28:36;0.10;99.90
53274;DHT22;39163;52.696;6.758;2023-03-11T02:31:03;0.10;99.90
53274;DHT22;39163;52.696;6.758;2023-03-11T02:33:29;0.10;99.90
53274;DHT22;39163;52.696;6.758;2023-03-11T02:35:56;0.10;99.90
53274;DHT22;39163;52.696;6.758;2023-03-11T02:38:22;0.20;99.90
53274;DHT22;39163;52.696;6.758;2023-03-11T02:40:49;0.10;99.90
53274;DHT22;39163;52.696;6.758;2023-03-11T02:43:17;0.10;99.90
53274;DHT22;39163;52.696;6.758;2023-03-11T02:45:43;0.10;99.90
53274;DHT22;39163;52.696;6.758;2023-03-11T02:48:09;0.10;99.90
53274;DHT22;39163;52.696;6.758;2023-03-11T02:50:36;0.10;99.90
53274;DHT22;39163;52.696;6.758;2023-03-11T02:53:03;0.10;99.90
53274;DHT22;39163;52.696;6.758;2023-03-11T02:55:28;0.10;99.90
53274;DHT22;39163;52.696;6.758;2023-03-11T02:57:54;0.10;99.90
53274;DHT22;39163;52.696;6.758;2023-03-11T03:00:20;0.10;99.90
53274;DHT22;39163;52.696;6.758;2023-03-11T03:02:45;0.10;99.90
53274;DHT22;39163;52.696;6.758;2023-03-11T03:05:11;0.00;99.90
53274;DHT22;39163;52.696;6.758;2023-03-11T03:07:37;0.00;99.90
53274;DHT22;39163;52.696;6.758;2023-03-11T03:10:04;0.00;99.90
53274;DHT22;39163;52.696;6.758;2023-03-11T03:12:29;0.00;99.90
53274;DHT22;39163;52.696;6.758;2023-03-11T03:14:55;0.00;99.90
53274;DHT22;39163;52.696;6.758;2023-03-11T03:17:22;0.00;99.90
53274;DHT22;39163;52.696;6.758;2023-03-11T03:19:48;0.00;99.90
53274;DHT22;39163;52.696;6.758;2023-03-11T03:22:13;-0.10;99.90
53274;DHT22;39163;52.696;6.758;2023-03-11T03:24:39;-0.10;99.90
53274;DHT22;39163;52.696;6.758;2023-03-11T03:27:05;-0.30;99.90
53274;DHT22;39163;52.696;6.758;2023-03-11T03:29:30;-0.30;99.90
53274;DHT22;39163;52.696;6.758;2023-03-11T03:31:56;-0.40;99.90
53274;DHT22;39163;52.696;6.758;2023-03-11T03:34:22;-0.50;99.90
53274;DHT22;39163;52.696;6.758;2023-03-11T03:36:47;-0.50;99.90
53274;DHT22;39163;52.696;6.758;2023-03-11T03:39:13;-0.50;99.90
53274;DHT22;39163;52.696;6.758;2023-03-11T03:41:39;-0.70;99.90
53274;DHT22;39163;52.696;6.758;2023-03-11T03:44:04;-0.70;99.90
53274;DHT22;39163;52.696;6.758;2023-03-11T03:46:30;-0.80;99.90
53274;DHT22;39163;52.696;6.758;2023-03-11T03:48:55;-0.80;99.90
53274;DHT22;39163;52.696;6.758;2023-03-11T03:51:21;-0.80;99.90
53274;DHT22;39163;52.696;6.758;2023-03-11T03:53:47;-0.90;99.90
53274;DHT22;39163;52.696;6.758;2023-03-11T03:56:13;-0.90;99.90
53274;DHT22;39163;52.696;6.758;2023-03-11T03:58:39;-0.90;99.90
53274;DHT22;39163;52.696;6.758;2023-03-11T04:01:05;-0.90;99.90
53274;DHT22;39163;52.696;6.758;2023-03-11T04:03:31;-0.90;99.90
53274;DHT22;39163;52.696;6.758;2023-03-11T04:08:31;-0.90;99.90
53274;DHT22;39163;52.696;6.758;2023-03-11T04:10:57;-0.90;99.90
53274;DHT22;39163;52.696;6.758;2023-03-11T04:13:23;-0.90;99.90
53274;DHT22;39163;52.696;6.758;2023-03-11T04:15:48;-0.90;99.90
53274;DHT22;39163;52.696;6.758;2023-03-11T04:18:14;-1.00;99.90
53274;DHT22;39163;52.696;6.758;2023-03-11T04:20:39;-1.00;99.90
53274;DHT22;39163;52.696;6.758;2023-03-11T04:23:05;-1.10;99.90
53274;DHT22;39163;52.696;6.758;2023-03-11T04:25:31;-1.10;99.90
53274;DHT22;39163;52.696;6.758;2023-03-11T04:27:58;-1.10;99.90
53274;DHT22;39163;52.696;6.758;2023-03-11T04:30:24;-1.20;99.90
53274;DHT22;39163;52.696;6.758;2023-03-11T04:32:49;-1.20;99.90
53274;DHT22;39163;52.696;6.758;2023-03-11T04:35:15;-1.30;99.90
53274;DHT22;39163;52.696;6.758;2023-03-11T04:37:41;-1.30;99.90
53274;DHT22;39163;52.696;6.758;2023-03-11T04:40:06;-1.30;99.90
53274;DHT22;39163;52.696;6.758;2023-03-11T04:42:33;-1.30;99.90
53274;DHT22;39163;52.696;6.758;2023-03-11T04:44:58;-1.40;99.90
53274;DHT22;39163;52.696;6.758;2023-03-11T04:47:24;-1.40;99.90
53274;DHT22;39163;52.696;6.758;2023-03-11T04:49:50;-1.50;99.90
53274;DHT22;39163;52.696;6.758;2023-03-11T04:52:15;-1.50;99.90
53274;DHT22;39163;52.696;6.758;2023-03-11T04:54:41;-1.40;99.90
53274;DHT22;39163;52.696;6.758;2023-03-11T04:57:07;-1.60;99.90
53274;DHT22;39163;52.696;6.758;2023-03-11T04:59:32;-1.60;99.90
53274;DHT22;39163;52.696;6.758;2023-03-11T05:01:58;-1.70;99.90
53274;DHT22;39163;52.696;6.758;2023-03-11T05:04:24;-1.70;99.90
53274;DHT22;39163;52.696;6.758;2023-03-11T05:06:49;-1.80;99.90
53274;DHT22;39163;52.696;6.758;2023-03-11T05:09:15;-1.80;99.90
53274;DHT22;39163;52.696;6.758;2023-03-11T05:11:41;-1.90;99.90
53274;DHT22;39163;52.696;6.758;2023-03-11T05:14:06;-1.90;99.90
53274;DHT22;39163;52.696;6.758;2023-03-11T05:16:32;-1.90;99.90
53274;DHT22;39163;52.696;6.758;2023-03-11T05:18:57;-2.00;99.90
53274;DHT22;39163;52.696;6.758;2023-03-11T05:21:23;-2.00;99.90
53274;DHT22;39163;52.696;6.758;2023-03-11T05:23:49;-2.10;99.90
53274;DHT22;39163;52.696;6.758;2023-03-11T05:26:26;-2.10;99.90
53274;DHT22;39163;52.696;6.758;2023-03-11T05:28:52;-2.10;99.90
53274;DHT22;39163;52.696;6.758;2023-03-11T05:31:18;-2.20;99.90
53274;DHT22;39163;52.696;6.758;2023-03-11T05:33:52;-2.20;99.90
53274;DHT22;39163;52.696;6.758;2023-03-11T05:36:18;-2.20;99.90
53274;DHT22;39163;52.696;6.758;2023-03-11T05:38:53;-2.20;99.90
53274;DHT22;39163;52.696;6.758;2023-03-11T05:41:18;-2.20;99.90
53274;DHT22;39163;52.696;6.758;2023-03-11T05:43:44;-2.20;99.90
53274;DHT22;39163;52.696;6.758;2023-03-11T05:46:16;-2.30;99.90
53274;DHT22;39163;52.696;6.758;2023-03-11T05:48:54;-2.30;99.90
53274;DHT22;39163;52.696;6.758;2023-03-11T05:51:23;-2.30;99.90
53274;DHT22;39163;52.696;6.758;2023-03-11T05:53:52;-2.30;99.90
53274;DHT22;39163;52.696;6.758;2023-03-11T05:56:26;-2.30;99.90
53274;DHT22;39163;52.696;6.758;2023-03-11T05:58:52;-2.40;99.90
53274;DHT22;39163;52.696;6.758;2023-03-11T06:01:23;-2.40;99.90
53274;DHT22;39163;52.696;6.758;2023-03-11T06:03:51;-2.40;99.90
53274;DHT22;39163;52.696;6.758;2023-03-11T06:06:32;-2.40;99.90
53274;DHT22;39163;52.696;6.758;2023-03-11T06:08:58;-2.40;99.90
53274;DHT22;39163;52.696;6.758;2023-03-11T06:11:36;-2.40;99.90
53274;DHT22;39163;52.696;6.758;2023-03-11T06:14:01;-2.40;99.90
53274;DHT22;39163;52.696;6.758;2023-03-11T06:16:27;-2.40;99.90
53274;DHT22;39163;52.696;6.758;2023-03-11T06:18:52;-2.40;99.90
53274;DHT22;39163;52.696;6.758;2023-03-11T06:21:19;-2.40;99.90
53274;DHT22;39163;52.696;6.758;2023-03-11T06:23:45;-2.40;99.90
53274;DHT22;39163;52.696;6.758;2023-03-11T06:26:13;-2.40;99.90
53274;DHT22;39163;52.696;6.758;2023-03-11T06:28:41;-2.30;99.90
53274;DHT22;39163;52.696;6.758;2023-03-11T06:31:09;-2.30;99.90
53274;DHT22;39163;52.696;6.758;2023-03-11T06:33:43;-2.30;99.90
53274;DHT22;39163;52.696;6.758;2023-03-11T06:36:27;-2.20;99.90
53274;DHT22;39163;52.696;6.758;2023-03-11T06:38:53;-2.20;99.90
53274;DHT22;39163;52.696;6.758;2023-03-11T06:41:22;-2.20;99.90
53274;DHT22;39163;52.696;6.758;2023-03-11T06:43:53;-2.20;99.90
53274;DHT22;39163;52.696;6.758;2023-03-11T06:46:20;-2.10;99.90
53274;DHT22;39163;52.696;6.758;2023-03-11T06:48:56;-2.10;99.90
53274;DHT22;39163;52.696;6.758;2023-03-11T06:51:21;-2.00;99.90
53274;DHT22;39163;52.696;6.758;2023-03-11T06:53:47;-2.00;99.90
53274;DHT22;39163;52.696;6.758;2023-03-11T06:56:14;-1.90;99.90
53274;DHT22;39163;52.696;6.758;2023-03-11T06:58:46;-1.80;99.90
53274;DHT22;39163;52.696;6.758;2023-03-11T07:01:18;-1.80;99.90
53274;DHT22;39163;52.696;6.758;2023-03-11T07:03:56;-1.70;99.90
53274;DHT22;39163;52.696;6.758;2023-03-11T07:06:22;-1.60;99.90
53274;DHT22;39163;52.696;6.758;2023-03-11T07:08:54;-1.20;99.90
53274;DHT22;39163;52.696;6.758;2023-03-11T07:11:22;-0.10;99.90
53274;DHT22;39163;52.696;6.758;2023-03-11T07:13:54;1.00;99.90
53274;DHT22;39163;52.696;6.758;2023-03-11T07:16:20;1.90;99.90
53274;DHT22;39163;52.696;6.758;2023-03-11T07:18:56;2.70;99.90
53274;DHT22;39163;52.696;6.758;2023-03-11T07:21:28;3.30;99.90
53274;DHT22;39163;52.696;6.758;2023-03-11T07:23:55;4.10;99.90
53274;DHT22;39163;52.696;6.758;2023-03-11T07:26:21;4.60;99.90
53274;DHT22;39163;52.696;6.758;2023-03-11T07:28:53;5.00;99.90
53274;DHT22;39163;52.696;6.758;2023-03-11T07:31:20;5.40;99.90
53274;DHT22;39163;52.696;6.758;2023-03-11T07:33:47;5.80;99.90
53274;DHT22;39163;52.696;6.758;2023-03-11T07:36:14;6.10;99.90
53274;DHT22;39163;52.696;6.758;2023-03-11T07:38:55;6.30;99.90
53274;DHT22;39163;52.696;6.758;2023-03-11T07:41:25;6.70;99.90
53274;DHT22;39163;52.696;6.758;2023-03-11T07:43:54;6.90;99.90
53274;DHT22;39163;52.696;6.758;2023-03-11T07:46:23;7.00;99.90
53274;DHT22;39163;52.696;6.758;2023-03-11T07:48:52;7.20;99.90
53274;DHT22;39163;52.696;6.758;2023-03-11T07:51:19;7.20;99.90
53274;DHT22;39163;52.696;6.758;2023-03-11T07:53:51;7.30;99.90
53274;DHT22;39163;52.696;6.758;2023-03-11T07:56:25;7.30;99.90
53274;DHT22;39163;52.696;6.758;2023-03-11T07:58:51;7.50;99.90
53274;DHT22;39163;52.696;6.758;2023-03-11T08:01:18;7.30;99.90
53274;DHT22;39163;52.696;6.758;2023-03-11T08:03:44;7.20;99.90
53274;DHT22;39163;52.696;6.758;2023-03-11T08:06:20;6.80;99.90
53274;DHT22;39163;52.696;6.758;2023-03-11T08:08:56;6.40;99.90
53274;DHT22;39163;52.696;6.758;2023-03-11T08:11:28;5.80;99.90
53274;DHT22;39163;52.696;6.758;2023-03-11T08:13:54;5.20;99.90
53274;DHT22;39163;52.696;6.758;2023-03-11T08:16:27;4.60;99.90
53274;DHT22;39163;52.696;6.758;2023-03-11T08:18:53;4.10;99.90
53274;DHT22;39163;52.696;6.758;2023-03-11T08:21:23;3.70;99.90
53274;DHT22;39163;52.696;6.758;2023-03-11T08:23:53;3.40;99.90
53274;DHT22;39163;52.696;6.758;2023-03-11T08:26:21;3.20;99.90
53274;DHT22;39163;52.696;6.758;2023-03-11T08:28:53;3.10;99.90
53274;DHT22;39163;52.696;6.758;2023-03-11T08:31:27;3.00;99.90
53274;DHT22;39163;52.696;6.758;2023-03-11T08:33:56;3.00;99.90
53274;DHT22;39163;52.696;6.758;2023-03-11T08:36:25;2.90;99.90
53274;DHT22;39163;52.696;6.758;2023-03-11T08:38:54;2.90;99.90
53274;DHT22;39163;52.696;6.758;2023-03-11T08:41:26;3.00;99.90
53274;DHT22;39163;52.696;6.758;2023-03-11T08:43:54;3.00;99.90
53274;DHT22;39163;52.696;6.758;2023-03-11T08:46:30;3.10;99.90
53274;DHT22;39163;52.696;6.758;2023-03-11T08:48:56;3.20;99.90
53274;DHT22;39163;52.696;6.758;2023-03-11T08:51:28;3.20;99.90
53274;DHT22;39163;52.696;6.758;2023-03-11T08:53:54;3.30;99.90
53274;DHT22;39163;52.696;6.758;2023-03-11T08:56:19;3.40;99.90
53274;DHT22;39163;52.696;6.758;2023-03-11T08:58:54;3.50;99.90
53274;DHT22;39163;52.696;6.758;2023-03-11T09:01:20;3.70;99.90
53274;DHT22;39163;52.696;6.758;2023-03-11T09:03:53;3.80;99.90
53274;DHT22;39163;52.696;6.758;2023-03-11T09:06:22;3.90;99.90
53274;DHT22;39163;52.696;6.758;2023-03-11T09:08:49;4.00;99.90
53274;DHT22;39163;52.696;6.758;2023-03-11T09:11:15;4.10;99.90
53274;DHT22;39163;52.696;6.758;2023-03-11T09:13:50;4.30;99.90
53274;DHT22;39163;52.696;6.758;2023-03-11T09:16:17;4.30;99.90
53274;DHT22;39163;52.696;6.758;2023-03-11T09:18:55;4.40;99.90
53274;DHT22;39163;52.696;6.758;2023-03-11T09:21:26;4.50;99.90
53274;DHT22;39163;52.696;6.758;2023-03-11T09:23:55;4.70;99.90
53274;DHT22;39163;52.696;6.758;2023-03-11T09:26:31;4.90;99.90
53274;DHT22;39163;52.696;6.758;2023-03-11T09:28:56;5.00;99.90
53274;DHT22;39163;52.696;6.758;2023-03-11T09:31:28;5.10;99.90
53274;DHT22;39163;52.696;6.758;2023-03-11T09:33:53;5.20;99.90
53274;DHT22;39163;52.696;6.758;2023-03-11T09:36:21;5.30;99.90
53274;DHT22;39163;52.696;6.758;2023-03-11T09:38:47;5.50;99.90
53274;DHT22;39163;52.696;6.758;2023-03-11T09:49:02;5.90;99.90
53274;DHT22;39163;52.696;6.758;2023-03-11T09:51:35;6.10;99.90
53274;DHT22;39163;52.696;6.758;2023-03-11T09:54:03;6.20;99.90
53274;DHT22;39163;52.696;6.758;2023-03-11T09:56:33;6.30;99.90
53274;DHT22;39163;52.696;6.758;2023-03-11T09:59:13;6.50;99.90
53274;DHT22;39163;52.696;6.758;2023-03-11T10:01:43;6.50;99.90
53274;DHT22;39163;52.696;6.758;2023-03-11T10:04:20;6.70;99.90
53274;DHT22;39163;52.696;6.758;2023-03-11T10:06:48;6.90;99.90
53274;DHT22;39163;52.696;6.758;2023-03-11T10:12:17;7.00;99.90
53274;DHT22;39163;52.696;6.758;2023-03-11T10:22:41;7.50;99.90
53274;DHT22;39163;52.696;6.758;2023-03-11T10:25:15;7.50;99.90
53274;DHT22;39163;52.696;6.758;2023-03-11T10:27:44;7.60;99.90
53274;DHT22;39163;52.696;6.758;2023-03-11T10:32:45;8.10;99.90
53274;DHT22;39163;52.696;6.758;2023-03-11T10:35:16;8.10;99.90
53274;DHT22;39163;52.696;6.758;2023-03-11T10:37:47;8.30;99.90
53274;DHT22;39163;52.696;6.758;2023-03-11T10:40:27;8.40;99.90
53274;DHT22;39163;52.696;6.758;2023-03-11T10:42:54;8.60;99.90
53274;DHT22;39163;52.696;6.758;2023-03-11T10:45:21;8.60;99.90
53274;DHT22;39163;52.696;6.758;2023-03-11T10:47:48;8.70;99.90
53274;DHT22;39163;52.696;6.758;2023-03-11T10:50:14;8.90;99.90
53274;DHT22;39163;52.696;6.758;2023-03-11T10:52:41;9.00;99.90
53274;DHT22;39163;52.696;6.758;2023-03-11T10:55:15;9.10;99.90
53274;DHT22;39163;52.696;6.758;2023-03-11T10:57:44;9.30;99.90
53274;DHT22;39163;52.696;6.758;2023-03-11T11:00:14;9.50;99.90
53274;DHT22;39163;52.696;6.758;2023-03-11T11:02:52;9.50;99.90
53274;DHT22;39163;52.696;6.758;2023-03-11T11:07:48;9.60;99.90
53274;DHT22;39163;52.696;6.758;2023-03-11T11:10:24;9.80;99.90
53274;DHT22;39163;52.696;6.758;2023-03-11T11:17:53;9.90;99.90
53274;DHT22;39163;52.696;6.758;2023-03-11T11:20:20;9.90;99.90
53274;DHT22;39163;52.696;6.758;2023-03-11T11:22:48;10.10;99.90
53274;DHT22;39163;52.696;6.758;2023-03-11T11:25:28;10.20;99.90
53274;DHT22;39163;52.696;6.758;2023-03-11T11:27:59;9.90;99.90
53274;DHT22;39163;52.696;6.758;2023-03-11T11:30:25;9.90;99.90
53274;DHT22;39163;52.696;6.758;2023-03-11T11:32:51;9.70;99.90
53274;DHT22;39163;52.696;6.758;2023-03-11T11:35:18;9.90;99.90
53274;DHT22;39163;52.696;6.758;2023-03-11T11:37:45;10.10;99.90
53274;DHT22;39163;52.696;6.758;2023-03-11T11:43:00;10.40;99.90
53274;DHT22;39163;52.696;6.758;2023-03-11T11:45:41;10.40;99.90
53274;DHT22;39163;52.696;6.758;2023-03-11T11:48:14;10.50;99.90
53274;DHT22;39163;52.696;6.758;2023-03-11T11:50:43;10.50;99.90
53274;DHT22;39163;52.696;6.758;2023-03-11T11:53:12;10.40;99.90
53274;DHT22;39163;52.696;6.758;2023-03-11T11:55:41;10.50;99.90
53274;DHT22;39163;52.696;6.758;2023-03-11T11:58:10;10.60;99.90
53274;DHT22;39163;52.696;6.758;2023-03-11T12:00:48;10.80;99.90
53274;DHT22;39163;52.696;6.758;2023-03-11T12:03:25;10.80;99.90
53274;DHT22;39163;52.696;6.758;2023-03-11T12:05:55;11.00;99.90
53274;DHT22;39163;52.696;6.758;2023-03-11T12:08:39;11.10;99.90
53274;DHT22;39163;52.696;6.758;2023-03-11T12:11:07;10.90;98.70
53274;DHT22;39163;52.696;6.758;2023-03-11T12:18:39;10.10;96.90
53274;DHT22;39163;52.696;6.758;2023-03-11T12:21:10;9.90;99.00
53274;DHT22;39163;52.696;6.758;2023-03-11T12:23:59;9.90;99.60
53274;DHT22;39163;52.696;6.758;2023-03-11T12:26:28;10.00;99.90
53274;DHT22;39163;52.696;6.758;2023-03-11T12:29:10;9.70;99.40
53274;DHT22;39163;52.696;6.758;2023-03-11T12:31:37;9.60;98.30
53274;DHT22;39163;52.696;6.758;2023-03-11T12:34:04;9.80;99.40
53274;DHT22;39163;52.696;6.758;2023-03-11T12:36:32;9.80;98.80
53274;DHT22;39163;52.696;6.758;2023-03-11T12:38:59;9.90;99.50
53274;DHT22;39163;52.696;6.758;2023-03-11T12:46:16;9.70;97.30
53274;DHT22;39163;52.696;6.758;2023-03-11T12:48:42;9.50;97.90
53274;DHT22;39163;52.696;6.758;2023-03-11T12:53:53;9.50;98.40
53274;DHT22;39163;52.696;6.758;2023-03-11T12:56:21;9.30;98.30
53274;DHT22;39163;52.696;6.758;2023-03-11T13:04:10;9.30;98.00
53274;DHT22;39163;52.696;6.758;2023-03-11T13:09:14;9.30;99.50
53274;DHT22;39163;52.696;6.758;2023-03-11T13:11:44;9.50;99.90
53274;DHT22;39163;52.696;6.758;2023-03-11T13:16:41;9.90;98.40
53274;DHT22;39163;52.696;6.758;2023-03-11T13:22:38;10.10;98.00
53274;DHT22;39163;52.696;6.758;2023-03-11T13:27:50;10.10;95.50
53274;DHT22;39163;52.696;6.758;2023-03-11T13:30:19;10.20;95.30
53274;DHT22;39163;52.696;6.758;2023-03-11T13:33:01;10.30;96.80
53274;DHT22;39163;52.696;6.758;2023-03-11T13:42:55;10.50;94.10
53274;DHT22;39163;52.696;6.758;2023-03-11T13:45:32;10.60;93.90
53274;DHT22;39163;52.696;6.758;2023-03-11T13:50:35;10.90;93.20
53274;DHT22;39163;52.696;6.758;2023-03-11T13:53:02;10.90;93.70
53274;DHT22;39163;52.696;6.758;2023-03-11T13:55:35;11.20;95.40
53274;DHT22;39163;52.696;6.758;2023-03-11T13:58:01;11.30;93.50
53274;DHT22;39163;52.696;6.758;2023-03-11T14:00:38;11.20;93.40
53274;DHT22;39163;52.696;6.758;2023-03-11T14:03:11;11.10;93.30
53274;DHT22;39163;52.696;6.758;2023-03-11T14:05:39;10.90;91.80
53274;DHT22;39163;52.696;6.758;2023-03-11T14:08:11;10.80;91.20
53274;DHT22;39163;52.696;6.758;2023-03-11T14:10:37;10.80;91.80
53274;DHT22;39163;52.696;6.758;2023-03-11T14:13:16;10.60;89.70
53274;DHT22;39163;52.696;6.758;2023-03-11T14:15:44;10.50;90.80
53274;DHT22;39163;52.696;6.758;2023-03-11T14:18:24;10.30;85.20
53274;DHT22;39163;52.696;6.758;2023-03-11T14:20:50;10.10;84.00
53274;DHT22;39163;52.696;6.758;2023-03-11T14:23:32;9.90;90.40
53274;DHT22;39163;52.696;6.758;2023-03-11T14:25:59;9.90;88.50
53274;DHT22;39163;52.696;6.758;2023-03-11T14:28:25;10.00;89.20
53274;DHT22;39163;52.696;6.758;2023-03-11T14:30:56;10.10;87.60
53274;DHT22;39163;52.696;6.758;2023-03-11T14:33:22;10.20;87.10
53274;DHT22;39163;52.696;6.758;2023-03-11T14:35:53;10.20;88.70
53274;DHT22;39163;52.696;6.758;2023-03-11T14:38:23;10.30;88.70
